sensor_id;sensor_type;location;lat;lon;timestamp;pressure;altitude;pressure_sealevel;temperature;humidity
72308;BME280;60257;42.638;23.376;2023-02-08T00:00:45;96112.91;;;-5.47;66.34
72308;BME280;60257;42.638;23.376;2023-02-08T00:03:10;96111.09;;;-5.53;67.80
72308;BME280;60257;42.638;23.376;2023-02-08T00:05:36;96125.06;;;-5.45;67.28
72308;BME280;60257;42.638;23.376;2023-02-08T00:08:02;96127.88;;;-5.33;66.49
72308;BME280;60257;42.638;23.376;2023-02-08T00:10:27;96124.97;;;-5.31;67.01
72308;BME280;60257;42.638;23.376;2023-02-08T00:12:53;96116.38;;;-5.40;66.23
72308;BME280;60257;42.638;23.376;2023-02-08T00:15:18;96133.56;;;-5.16;65.84
72308;BME280;60257;42.638;23.376;2023-02-08T00:17:44;96099.09;;;-5.37;67.10
72308;BME280;60257;42.638;23.376;2023-02-08T00:20:10;96129.44;;;-5.12;65.99
72308;BME280;60257;42.638;23.376;2023-02-08T00:22:36;96143.38;;;-5.10;65.24
72308;BME280;60257;42.638;23.376;2023-02-08T00:25:04;96146.13;;;-5.23;65.86
72308;BME280;60257;42.638;23.376;2023-02-08T00:27:30;96126.06;;;-5.46;66.53
72308;BME280;60257;42.638;23.376;2023-02-08T00:29:55;96146.81;;;-5.41;66.91
72308;BME280;60257;42.638;23.376;2023-02-08T00:32:21;96146.19;;;-5.36;67.08
72308;BME280;60257;42.638;23.376;2023-02-08T00:34:46;96140.22;;;-5.38;67.01
72308;BME280;60257;42.638;23.376;2023-02-08T00:37:12;96165.25;;;-5.26;66.29
72308;BME280;60257;42.638;23.376;2023-02-08T00:39:37;96134.84;;;-5.32;65.68
72308;BME280;60257;42.638;23.376;2023-02-08T00:42:03;96080.94;;;-5.67;65.52
72308;BME280;60257;42.638;23.376;2023-02-08T00:44:28;96171.41;;;-5.13;64.83
72308;BME280;60257;42.638;23.376;2023-02-08T00:46:53;96164.25;;;-5.19;65.23
72308;BME280;60257;42.638;23.376;2023-02-08T00:49:19;96162.81;;;-5.28;65.11
72308;BME280;60257;42.638;23.376;2023-02-08T00:51:45;96172.25;;;-5.25;65.57
72308;BME280;60257;42.638;23.376;2023-02-08T00:54:13;96152.94;;;-5.34;65.38
72308;BME280;60257;42.638;23.376;2023-02-08T00:56:39;96171.88;;;-5.29;65.56
72308;BME280;60257;42.638;23.376;2023-02-08T00:59:05;96163.00;;;-5.23;66.03
72308;BME280;60257;42.638;23.376;2023-02-08T01:01:30;96139.81;;;-5.35;67.37
72308;BME280;60257;42.638;23.376;2023-02-08T01:03:55;96166.25;;;-5.14;65.65
72308;BME280;60257;42.638;23.376;2023-02-08T01:06:21;96162.75;;;-5.15;67.18
72308;BME280;60257;42.638;23.376;2023-02-08T01:08:47;96184.28;;;-4.96;66.76
72308;BME280;60257;42.638;23.376;2023-02-08T01:11:18;96188.63;;;-5.02;64.98
72308;BME280;60257;42.638;23.376;2023-02-08T01:13:46;96131.19;;;-5.37;64.74
72308;BME280;60257;42.638;23.376;2023-02-08T01:16:17;96187.59;;;-5.01;64.60
72308;BME280;60257;42.638;23.376;2023-02-08T01:18:45;96178.56;;;-5.07;64.44
72308;BME280;60257;42.638;23.376;2023-02-08T01:21:14;96185.97;;;-5.09;65.03
72308;BME280;60257;42.638;23.376;2023-02-08T01:23:41;96172.88;;;-5.23;65.25
72308;BME280;60257;42.638;23.376;2023-02-08T01:26:08;96171.88;;;-5.29;66.48
72308;BME280;60257;42.638;23.376;2023-02-08T01:28:34;96134.88;;;-5.38;65.59
72308;BME280;60257;42.638;23.376;2023-02-08T01:31:06;96155.63;;;-5.27;65.91
72308;BME280;60257;42.638;23.376;2023-02-08T01:33:32;96163.63;;;-5.21;65.85
72308;BME280;60257;42.638;23.376;2023-02-08T01:35:57;96167.53;;;-5.23;65.94
72308;BME280;60257;42.638;23.376;2023-02-08T01:38:22;96164.25;;;-5.32;66.14
72308;BME280;60257;42.638;23.376;2023-02-08T01:40:48;96157.00;;;-5.18;65.73
72308;BME280;60257;42.638;23.376;2023-02-08T01:43:23;96173.09;;;-5.31;66.86
72308;BME280;60257;42.638;23.376;2023-02-08T01:45:49;96161.78;;;-5.33;66.31
72308;BME280;60257;42.638;23.376;2023-02-08T01:48:18;96141.69;;;-5.43;67.54
72308;BME280;60257;42.638;23.376;2023-02-08T01:53:16;96174.88;;;-5.06;66.40
72308;BME280;60257;42.638;23.376;2023-02-08T01:55:47;96166.91;;;-5.25;67.75
72308;BME280;60257;42.638;23.376;2023-02-08T01:58:15;96186.84;;;-5.15;67.51
72308;BME280;60257;42.638;23.376;2023-02-08T02:00:41;96186.59;;;-5.07;68.14
72308;BME280;60257;42.638;23.376;2023-02-08T02:03:07;96177.56;;;-5.12;67.81
72308;BME280;60257;42.638;23.376;2023-02-08T02:05:41;96186.19;;;-5.03;68.26
72308;BME280;60257;42.638;23.376;2023-02-08T02:08:08;96184.28;;;-5.03;67.56
72308;BME280;60257;42.638;23.376;2023-02-08T02:10:36;96171.97;;;-5.11;68.37
72308;BME280;60257;42.638;23.376;2023-02-08T02:13:11;96187.41;;;-5.06;67.67
72308;BME280;60257;42.638;23.376;2023-02-08T02:15:38;96191.09;;;-5.00;67.80
72308;BME280;60257;42.638;23.376;2023-02-08T02:18:05;96198.72;;;-5.04;66.57
72308;BME280;60257;42.638;23.376;2023-02-08T02:43:27;96221.19;;;-5.12;68.53
72308;BME280;60257;42.638;23.376;2023-02-08T02:46:34;96209.78;;;-4.94;67.10
72308;BME280;60257;42.638;23.376;2023-02-08T02:51:49;96215.84;;;-5.12;68.25
72308;BME280;60257;42.638;23.376;2023-02-08T02:54:19;96207.25;;;-5.33;68.34
72308;BME280;60257;42.638;23.376;2023-02-08T02:56:50;96218.13;;;-5.22;68.54
72308;BME280;60257;42.638;23.376;2023-02-08T02:59:18;96197.03;;;-5.43;69.29
72308;BME280;60257;42.638;23.376;2023-02-08T03:01:45;96223.53;;;-5.35;69.75
72308;BME280;60257;42.638;23.376;2023-02-08T03:20:37;96214.94;;;-5.50;72.81
72308;BME280;60257;42.638;23.376;2023-02-08T03:28:22;96226.00;;;-5.47;72.84
72308;BME280;60257;42.638;23.376;2023-02-08T03:31:02;96216.75;;;-5.44;73.00
72308;BME280;60257;42.638;23.376;2023-02-08T03:36:20;96219.78;;;-5.34;72.92
72308;BME280;60257;42.638;23.376;2023-02-08T03:38:51;96231.91;;;-5.25;72.48
72308;BME280;60257;42.638;23.376;2023-02-08T03:41:24;96229.47;;;-5.33;73.28
72308;BME280;60257;42.638;23.376;2023-02-08T03:43:58;96225.59;;;-5.44;72.77
72308;BME280;60257;42.638;23.376;2023-02-08T03:46:28;96226.19;;;-5.42;73.00
72308;BME280;60257;42.638;23.376;2023-02-08T03:49:01;96240.03;;;-5.58;73.18
72308;BME280;60257;42.638;23.376;2023-02-08T03:51:30;96237.16;;;-5.69;73.89
72308;BME280;60257;42.638;23.376;2023-02-08T03:53:59;96240.44;;;-5.67;74.24
72308;BME280;60257;42.638;23.376;2023-02-08T03:57:09;96240.44;;;-5.67;74.03
72308;BME280;60257;42.638;23.376;2023-02-08T03:59:38;96226.47;;;-5.76;74.14
72308;BME280;60257;42.638;23.376;2023-02-08T04:02:08;96242.50;;;-5.69;74.20
72308;BME280;60257;42.638;23.376;2023-02-08T04:04:41;96250.53;;;-5.76;74.47
72308;BME280;60257;42.638;23.376;2023-02-08T04:07:08;96239.25;;;-5.91;74.66
72308;BME280;60257;42.638;23.376;2023-02-08T04:09:34;96243.16;;;-5.94;74.91
72308;BME280;60257;42.638;23.376;2023-02-08T04:11:59;96245.63;;;-5.99;74.73
72308;BME280;60257;42.638;23.376;2023-02-08T04:14:25;96254.84;;;-5.88;74.86
72308;BME280;60257;42.638;23.376;2023-02-08T04:16:51;96252.41;;;-6.09;74.68
72308;BME280;60257;42.638;23.376;2023-02-08T04:19:16;96264.09;;;-6.04;74.79
72308;BME280;60257;42.638;23.376;2023-02-08T04:21:42;96268.22;;;-6.14;75.03
72308;BME280;60257;42.638;23.376;2023-02-08T04:24:07;96250.13;;;-6.26;75.20
72308;BME280;60257;42.638;23.376;2023-02-08T04:26:33;96256.50;;;-6.20;75.66
72308;BME280;60257;42.638;23.376;2023-02-08T04:28:59;96259.81;;;-5.98;75.55
72308;BME280;60257;42.638;23.376;2023-02-08T04:31:24;96267.81;;;-5.98;75.34
72308;BME280;60257;42.638;23.376;2023-02-08T04:33:50;96264.47;;;-5.81;74.55
72308;BME280;60257;42.638;23.376;2023-02-08T04:36:16;96232.88;;;-6.03;74.55
72308;BME280;60257;42.638;23.376;2023-02-08T04:38:41;96262.06;;;-5.89;74.67
72308;BME280;60257;42.638;23.376;2023-02-08T04:41:07;96252.63;;;-5.91;75.36
72308;BME280;60257;42.638;23.376;2023-02-08T04:43:32;96250.16;;;-5.99;75.53
72308;BME280;60257;42.638;23.376;2023-02-08T04:45:58;96270.47;;;-5.85;75.56
72308;BME280;60257;42.638;23.376;2023-02-08T04:48:24;96266.13;;;-5.79;75.56
72308;BME280;60257;42.638;23.376;2023-02-08T04:50:49;96260.19;;;-5.88;75.68
72308;BME280;60257;42.638;23.376;2023-02-08T04:53:14;96279.31;;;-5.91;75.79
72308;BME280;60257;42.638;23.376;2023-02-08T04:55:40;96268.41;;;-6.03;76.11
72308;BME280;60257;42.638;23.376;2023-02-08T04:58:05;96273.75;;;-6.03;76.04
72308;BME280;60257;42.638;23.376;2023-02-08T05:00:31;96300.06;;;-6.00;76.02
72308;BME280;60257;42.638;23.376;2023-02-08T05:02:57;96303.75;;;-6.07;76.47
72308;BME280;60257;42.638;23.376;2023-02-08T05:05:24;96305.19;;;-6.11;76.01
72308;BME280;60257;42.638;23.376;2023-02-08T05:07:50;96308.84;;;-6.19;76.03
72308;BME280;60257;42.638;23.376;2023-02-08T05:10:16;96317.94;;;-6.13;76.10
72308;BME280;60257;42.638;23.376;2023-02-08T05:12:42;96317.94;;;-6.13;75.98
72308;BME280;60257;42.638;23.376;2023-02-08T05:15:08;96323.91;;;-6.05;76.28
72308;BME280;60257;42.638;23.376;2023-02-08T05:17:34;96315.66;;;-6.10;76.07
72308;BME280;60257;42.638;23.376;2023-02-08T05:19:59;96321.63;;;-6.08;76.01
72308;BME280;60257;42.638;23.376;2023-02-08T05:22:25;96331.72;;;-5.97;75.85
72308;BME280;60257;42.638;23.376;2023-02-08T05:24:50;96323.47;;;-6.02;75.93
72308;BME280;60257;42.638;23.376;2023-02-08T05:27:16;96326.56;;;-6.05;75.79
72308;BME280;60257;42.638;23.376;2023-02-08T05:29:42;96329.63;;;-6.14;75.90
72308;BME280;60257;42.638;23.376;2023-02-08T05:32:07;96330.44;;;-6.20;76.09
72308;BME280;60257;42.638;23.376;2023-02-08T05:34:33;96333.53;;;-6.10;75.76
72308;BME280;60257;42.638;23.376;2023-02-08T05:36:58;96331.28;;;-6.20;76.17
72308;BME280;60257;42.638;23.376;2023-02-08T05:39:23;96339.25;;;-6.27;76.39
72308;BME280;60257;42.638;23.376;2023-02-08T05:41:49;96341.31;;;-6.29;76.16
72308;BME280;60257;42.638;23.376;2023-02-08T05:44:14;96337.56;;;-6.34;76.64
72308;BME280;60257;42.638;23.376;2023-02-08T05:46:40;96344.56;;;-6.40;76.74
72308;BME280;60257;42.638;23.376;2023-02-08T05:49:05;96353.84;;;-6.23;76.70
72308;BME280;60257;42.638;23.376;2023-02-08T05:51:31;96354.50;;;-6.14;76.02
72308;BME280;60257;42.638;23.376;2023-02-08T05:53:56;96356.72;;;-6.17;76.16
72308;BME280;60257;42.638;23.376;2023-02-08T05:56:22;96352.84;;;-6.22;76.55
72308;BME280;60257;42.638;23.376;2023-02-08T05:58:47;96343.81;;;-6.20;76.32
72308;BME280;60257;42.638;23.376;2023-02-08T06:01:13;96355.06;;;-6.18;76.41
72308;BME280;60257;42.638;23.376;2023-02-08T06:03:39;96354.25;;;-6.26;76.49
72308;BME280;60257;42.638;23.376;2023-02-08T06:06:05;96342.78;;;-6.19;76.59
72308;BME280;60257;42.638;23.376;2023-02-08T06:08:32;96328.56;;;-6.27;76.32
72308;BME280;60257;42.638;23.376;2023-02-08T06:10:58;96349.56;;;-6.10;76.22
72308;BME280;60257;42.638;23.376;2023-02-08T06:13:23;96333.94;;;-6.20;76.18
72308;BME280;60257;42.638;23.376;2023-02-08T06:15:48;96348.34;;;-6.08;76.54
72308;BME280;60257;42.638;23.376;2023-02-08T06:18:15;96345.66;;;-6.08;76.11
72308;BME280;60257;42.638;23.376;2023-02-08T06:20:41;96350.19;;;-6.02;76.32
72308;BME280;60257;42.638;23.376;2023-02-08T06:23:06;96330.22;;;-6.19;76.44
72308;BME280;60257;42.638;23.376;2023-02-08T06:25:32;96355.13;;;-5.99;76.16
72308;BME280;60257;42.638;23.376;2023-02-08T06:27:57;96341.16;;;-6.07;75.58
72308;BME280;60257;42.638;23.376;2023-02-08T06:30:23;96345.47;;;-6.13;75.47
72308;BME280;60257;42.638;23.376;2023-02-08T06:32:48;96356.34;;;-6.08;75.31
72308;BME280;60257;42.638;23.376;2023-02-08T06:35:14;96360.88;;;-6.08;74.36
72308;BME280;60257;42.638;23.376;2023-02-08T06:37:39;96353.88;;;-6.09;74.14
72308;BME280;60257;42.638;23.376;2023-02-08T06:40:05;96351.00;;;-6.01;75.47
72308;BME280;60257;42.638;23.376;2023-02-08T06:42:31;96366.81;;;-5.87;75.25
72308;BME280;60257;42.638;23.376;2023-02-08T06:44:56;96375.72;;;-5.73;75.24
72308;BME280;60257;42.638;23.376;2023-02-08T06:47:24;96363.38;;;-5.67;75.12
72308;BME280;60257;42.638;23.376;2023-02-08T06:49:50;96363.59;;;-5.43;75.41
72308;BME280;60257;42.638;23.376;2023-02-08T06:52:16;96364.41;;;-5.29;74.61
72308;BME280;60257;42.638;23.376;2023-02-08T06:54:41;96358.84;;;-5.21;74.35
72308;BME280;60257;42.638;23.376;2023-02-08T06:57:07;96367.88;;;-5.15;73.63
72308;BME280;60257;42.638;23.376;2023-02-08T06:59:33;96373.25;;;-5.22;73.23
72308;BME280;60257;42.638;23.376;2023-02-08T07:01:58;96364.59;;;-5.24;72.10
72308;BME280;60257;42.638;23.376;2023-02-08T07:04:24;96338.06;;;-5.38;72.90
72308;BME280;60257;42.638;23.376;2023-02-08T07:06:49;96375.69;;;-5.14;70.81
72308;BME280;60257;42.638;23.376;2023-02-08T07:09:15;96349.38;;;-5.23;71.83
72308;BME280;60257;42.638;23.376;2023-02-08T07:11:41;96368.47;;;-5.00;71.83
72308;BME280;60257;42.638;23.376;2023-02-08T07:14:11;96369.09;;;-4.98;72.58
72308;BME280;60257;42.638;23.376;2023-02-08T07:16:37;96378.91;;;-4.79;71.78
72308;BME280;60257;42.638;23.376;2023-02-08T07:19:02;96382.63;;;-4.73;70.67
72308;BME280;60257;42.638;23.376;2023-02-08T07:21:27;96383.19;;;-4.65;71.21
72308;BME280;60257;42.638;23.376;2023-02-08T07:23:53;96391.63;;;-4.54;70.20
72308;BME280;60257;42.638;23.376;2023-02-08T07:26:18;96393.09;;;-4.58;70.13
72308;BME280;60257;42.638;23.376;2023-02-08T07:28:44;96393.72;;;-4.70;69.55
72308;BME280;60257;42.638;23.376;2023-02-08T07:31:12;96381.94;;;-4.55;70.36
72308;BME280;60257;42.638;23.376;2023-02-08T07:33:39;96390.31;;;-4.32;70.21
72308;BME280;60257;42.638;23.376;2023-02-08T07:36:05;96398.69;;;-4.15;70.23
72308;BME280;60257;42.638;23.376;2023-02-08T07:38:32;96405.09;;;-4.23;69.71
72308;BME280;60257;42.638;23.376;2023-02-08T07:41:06;96399.78;;;-4.30;69.76
72308;BME280;60257;42.638;23.376;2023-02-08T07:43:33;96406.41;;;-4.39;69.85
72308;BME280;60257;42.638;23.376;2023-02-08T07:46:10;96398.56;;;-4.27;69.23
72308;BME280;60257;42.638;23.376;2023-02-08T07:48:36;96398.56;;;-4.34;69.86
72308;BME280;60257;42.638;23.376;2023-02-08T07:51:02;96405.78;;;-4.34;70.42
72308;BME280;60257;42.638;23.376;2023-02-08T07:53:28;96401.03;;;-4.32;70.44
72308;BME280;60257;42.638;23.376;2023-02-08T07:55:53;96388.44;;;-4.32;70.08
72308;BME280;60257;42.638;23.376;2023-02-08T07:58:19;96397.44;;;-4.13;69.70
72308;BME280;60257;42.638;23.376;2023-02-08T08:00:44;96379.31;;;-4.17;69.28
72308;BME280;60257;42.638;23.376;2023-02-08T08:03:10;96400.22;;;-3.95;68.00
72308;BME280;60257;42.638;23.376;2023-02-08T08:05:35;96393.47;;;-3.97;67.84
72308;BME280;60257;42.638;23.376;2023-02-08T08:08:03;96394.84;;;-3.88;67.97
72308;BME280;60257;42.638;23.376;2023-02-08T08:10:30;96393.19;;;-4.27;68.21
72308;BME280;60257;42.638;23.376;2023-02-08T08:12:55;96399.97;;;-4.24;68.19
72308;BME280;60257;42.638;23.376;2023-02-08T08:15:20;96387.81;;;-4.20;67.69
72308;BME280;60257;42.638;23.376;2023-02-08T08:17:46;96388.31;;;-4.43;67.51
72308;BME280;60257;42.638;23.376;2023-02-08T08:20:11;96373.66;;;-4.34;66.25
72308;BME280;60257;42.638;23.376;2023-02-08T08:22:37;96398.56;;;-4.27;66.58
72308;BME280;60257;42.638;23.376;2023-02-08T08:25:03;96398.72;;;-4.22;67.76
72308;BME280;60257;42.638;23.376;2023-02-08T08:27:28;96397.94;;;-4.29;65.89
72308;BME280;60257;42.638;23.376;2023-02-08T08:29:54;96403.19;;;-4.09;65.26
72308;BME280;60257;42.638;23.376;2023-02-08T08:32:19;96377.41;;;-4.04;65.86
72308;BME280;60257;42.638;23.376;2023-02-08T08:34:45;96404.69;;;-3.75;65.65
72308;BME280;60257;42.638;23.376;2023-02-08T08:37:10;96397.84;;;-3.71;65.57
72308;BME280;60257;42.638;23.376;2023-02-08T08:39:36;96377.66;;;-3.74;64.15
72308;BME280;60257;42.638;23.376;2023-02-08T08:42:01;96395.97;;;-3.64;63.63
72308;BME280;60257;42.638;23.376;2023-02-08T08:44:28;96391.94;;;-3.48;64.16
72308;BME280;60257;42.638;23.376;2023-02-08T08:46:55;96400.50;;;-3.33;62.60
72308;BME280;60257;42.638;23.376;2023-02-08T08:49:22;96406.22;;;-3.30;63.55
72308;BME280;60257;42.638;23.376;2023-02-08T08:51:47;96409.72;;;-3.29;63.74
72308;BME280;60257;42.638;23.376;2023-02-08T08:54:13;96402.28;;;-3.27;64.07
72308;BME280;60257;42.638;23.376;2023-02-08T08:56:39;96395.84;;;-3.20;64.17
72308;BME280;60257;42.638;23.376;2023-02-08T08:59:04;96400.88;;;-3.05;63.67
72308;BME280;60257;42.638;23.376;2023-02-08T09:01:29;96421.56;;;-2.87;62.52
72308;BME280;60257;42.638;23.376;2023-02-08T09:03:55;96428.25;;;-2.96;62.13
72308;BME280;60257;42.638;23.376;2023-02-08T09:06:21;96421.34;;;-2.86;63.10
72308;BME280;60257;42.638;23.376;2023-02-08T09:08:46;96412.97;;;-2.96;61.86
72308;BME280;60257;42.638;23.376;2023-02-08T09:11:13;96422.97;;;-3.10;62.30
72308;BME280;60257;42.638;23.376;2023-02-08T09:13:39;96417.31;;;-3.20;62.19
72308;BME280;60257;42.638;23.376;2023-02-08T09:16:13;96427.06;;;-3.32;62.14
72308;BME280;60257;42.638;23.376;2023-02-08T09:18:40;96436.69;;;-3.18;62.95
72308;BME280;60257;42.638;23.376;2023-02-08T09:21:07;96427.56;;;-3.10;62.81
72308;BME280;60257;42.638;23.376;2023-02-08T09:23:33;96444.84;;;-3.06;61.90
72308;BME280;60257;42.638;23.376;2023-02-08T09:26:08;96426.75;;;-3.17;61.37
72308;BME280;60257;42.638;23.376;2023-02-08T09:28:34;96418.69;;;-3.11;61.61
72308;BME280;60257;42.638;23.376;2023-02-08T09:31:09;96440.41;;;-2.69;61.71
72308;BME280;60257;42.638;23.376;2023-02-08T09:33:35;96420.06;;;-2.58;60.75
72308;BME280;60257;42.638;23.376;2023-02-08T09:36:01;96441.13;;;-2.19;59.96
72308;BME280;60257;42.638;23.376;2023-02-08T09:38:26;96430.22;;;-2.06;58.33
72308;BME280;60257;42.638;23.376;2023-02-08T09:41:03;96428.72;;;-1.83;57.94
72308;BME280;60257;42.638;23.376;2023-02-08T09:46:16;96417.06;;;-1.47;56.92
72308;BME280;60257;42.638;23.376;2023-02-08T09:48:44;96424.44;;;-1.43;54.66
72308;BME280;60257;42.638;23.376;2023-02-08T09:51:36;96422.78;;;-1.74;54.94
72308;BME280;60257;42.638;23.376;2023-02-08T09:54:07;96423.13;;;-2.37;55.28
72308;BME280;60257;42.638;23.376;2023-02-08T09:56:37;96431.66;;;-2.03;55.93
72308;BME280;60257;42.638;23.376;2023-02-08T09:59:07;96435.72;;;-1.82;56.84
72308;BME280;60257;42.638;23.376;2023-02-08T10:01:36;96426.59;;;-1.63;55.70
72308;BME280;60257;42.638;23.376;2023-02-08T10:06:48;96414.84;;;-1.39;56.60
72308;BME280;60257;42.638;23.376;2023-02-08T10:09:17;96424.56;;;-1.68;53.63
72308;BME280;60257;42.638;23.376;2023-02-08T10:17:08;96411.34;;;-2.17;56.07
72308;BME280;60257;42.638;23.376;2023-02-08T10:31:30;96418.19;;;-1.25;53.82
72308;BME280;60257;42.638;23.376;2023-02-08T10:34:02;96393.28;;;-1.09;54.31
72308;BME280;60257;42.638;23.376;2023-02-08T10:36:36;96398.78;;;-1.04;53.19
72308;BME280;60257;42.638;23.376;2023-02-08T10:39:20;96410.19;;;-0.79;52.63
72308;BME280;60257;42.638;23.376;2023-02-08T10:41:50;96405.38;;;-0.42;53.03
72308;BME280;60257;42.638;23.376;2023-02-08T10:47:46;96408.13;;;0.38;50.90
72308;BME280;60257;42.638;23.376;2023-02-08T10:50:39;96401.66;;;0.39;49.11
72308;BME280;60257;42.638;23.376;2023-02-08T10:53:05;96382.88;;;0.45;49.01
72308;BME280;60257;42.638;23.376;2023-02-08T10:55:34;96405.94;;;0.81;49.12
72308;BME280;60257;42.638;23.376;2023-02-08T10:58:03;96404.56;;;0.95;48.69
72308;BME280;60257;42.638;23.376;2023-02-08T11:00:32;96396.94;;;0.75;46.61
72308;BME280;60257;42.638;23.376;2023-02-08T11:03:15;96387.16;;;0.57;49.30
72308;BME280;60257;42.638;23.376;2023-02-08T11:05:42;96391.72;;;0.85;49.68
72308;BME280;60257;42.638;23.376;2023-02-08T11:08:17;96406.81;;;0.86;47.29
72308;BME280;60257;42.638;23.376;2023-02-08T11:11:04;96387.59;;;0.83;48.48
72308;BME280;60257;42.638;23.376;2023-02-08T11:13:33;96387.06;;;0.52;46.82
72308;BME280;60257;42.638;23.376;2023-02-08T11:16:00;96395.78;;;0.43;46.81
72308;BME280;60257;42.638;23.376;2023-02-08T11:18:39;96407.78;;;0.63;47.53
72308;BME280;60257;42.638;23.376;2023-02-08T11:21:20;96393.97;;;0.93;47.36
72308;BME280;60257;42.638;23.376;2023-02-08T11:23:50;96402.34;;;0.92;46.20
72308;BME280;60257;42.638;23.376;2023-02-08T11:26:37;96407.94;;;1.19;47.32
72308;BME280;60257;42.638;23.376;2023-02-08T11:31:35;96403.75;;;1.44;47.70
72308;BME280;60257;42.638;23.376;2023-02-08T11:34:04;96402.41;;;1.64;46.96
72308;BME280;60257;42.638;23.376;2023-02-08T11:36:32;96388.34;;;1.62;47.15
72308;BME280;60257;42.638;23.376;2023-02-08T11:39:13;96408.34;;;1.44;46.43
72308;BME280;60257;42.638;23.376;2023-02-08T11:41:43;96407.91;;;0.57;48.35
72308;BME280;60257;42.638;23.376;2023-02-08T11:44:14;96391.75;;;0.17;50.55
72308;BME280;60257;42.638;23.376;2023-02-08T11:46:45;96413.09;;;0.18;49.24
72308;BME280;60257;42.638;23.376;2023-02-08T11:49:24;96394.09;;;0.25;48.82
72308;BME280;60257;42.638;23.376;2023-02-08T11:51:52;96405.38;;;0.50;47.88
72308;BME280;60257;42.638;23.376;2023-02-08T11:57:03;96362.63;;;-0.73;49.73
72308;BME280;60257;42.638;23.376;2023-02-08T11:59:29;96418.34;;;-0.97;50.68
72308;BME280;60257;42.638;23.376;2023-02-08T12:01:55;96418.81;;;-1.00;51.34
72308;BME280;60257;42.638;23.376;2023-02-08T12:04:21;96427.09;;;-1.13;51.15
72308;BME280;60257;42.638;23.376;2023-02-08T12:17:29;96418.88;;;-1.60;52.37
72308;BME280;60257;42.638;23.376;2023-02-08T12:22:40;96420.91;;;-1.55;52.31
72308;BME280;60257;42.638;23.376;2023-02-08T12:25:27;96401.88;;;-1.72;52.88
72308;BME280;60257;42.638;23.376;2023-02-08T12:31:06;96412.34;;;-1.82;53.63
72308;BME280;60257;42.638;23.376;2023-02-08T12:36:51;96426.31;;;-1.91;53.35
72308;BME280;60257;42.638;23.376;2023-02-08T12:50:44;96416.81;;;-1.76;51.22
72308;BME280;60257;42.638;23.376;2023-02-08T12:55:57;96425.88;;;-1.88;52.37
72308;BME280;60257;42.638;23.376;2023-02-08T12:58:38;96430.44;;;-1.71;51.13
72308;BME280;60257;42.638;23.376;2023-02-08T13:01:14;96404.28;;;-1.82;50.43
72308;BME280;60257;42.638;23.376;2023-02-08T13:06:32;96434.09;;;-1.83;50.01
72308;BME280;60257;42.638;23.376;2023-02-08T13:11:53;96445.47;;;-1.51;49.86
72308;BME280;60257;42.638;23.376;2023-02-08T13:14:32;96448.94;;;-1.63;49.36
72308;BME280;60257;42.638;23.376;2023-02-08T13:20:27;96448.78;;;-1.68;50.40
72308;BME280;60257;42.638;23.376;2023-02-08T13:23:01;96445.47;;;-1.51;51.77
72308;BME280;60257;42.638;23.376;2023-02-08T13:25:31;96449.59;;;-1.37;51.58
72308;BME280;60257;42.638;23.376;2023-02-08T13:28:06;96447.91;;;-1.20;49.16
72308;BME280;60257;42.638;23.376;2023-02-08T13:30:36;96456.97;;;-1.03;50.65
72308;BME280;60257;42.638;23.376;2023-02-08T13:33:28;96458.88;;;-1.33;48.81
72308;BME280;60257;42.638;23.376;2023-02-08T13:35:56;96456.28;;;-1.40;48.39
72308;BME280;60257;42.638;23.376;2023-02-08T13:38:33;96459.44;;;-1.61;49.68
72308;BME280;60257;42.638;23.376;2023-02-08T13:41:03;96462.56;;;-1.46;50.21
72308;BME280;60257;42.638;23.376;2023-02-08T13:43:37;96444.19;;;-1.49;49.88
72308;BME280;60257;42.638;23.376;2023-02-08T13:46:05;96454.16;;;-1.38;49.52
72308;BME280;60257;42.638;23.376;2023-02-08T13:48:52;96462.47;;;-1.39;47.33
72308;BME280;60257;42.638;23.376;2023-02-08T13:56:53;96453.31;;;-1.50;46.99
72308;BME280;60257;42.638;23.376;2023-02-08T14:04:42;96477.03;;;-2.13;50.67
72308;BME280;60257;42.638;23.376;2023-02-08T14:12:53;96484.03;;;-2.30;53.31
72308;BME280;60257;42.638;23.376;2023-02-08T14:17:48;96481.81;;;-2.34;53.67
72308;BME280;60257;42.638;23.376;2023-02-08T14:22:59;96472.56;;;-2.62;53.99
72308;BME280;60257;42.638;23.376;2023-02-08T14:25:46;96474.72;;;-2.71;55.45
72308;BME280;60257;42.638;23.376;2023-02-08T14:28:33;96490.78;;;-2.64;54.95
72308;BME280;60257;42.638;23.376;2023-02-08T14:31:01;96493.13;;;-2.75;54.87
72308;BME280;60257;42.638;23.376;2023-02-08T14:33:48;96485.41;;;-2.89;56.73
72308;BME280;60257;42.638;23.376;2023-02-08T14:36:27;96472.34;;;-2.86;55.34
72308;BME280;60257;42.638;23.376;2023-02-08T14:47:04;96483.66;;;-3.08;57.77
72308;BME280;60257;42.638;23.376;2023-02-08T14:49:41;96492.53;;;-3.08;57.62
72308;BME280;60257;42.638;23.376;2023-02-08T14:52:26;96483.50;;;-3.14;56.99
72308;BME280;60257;42.638;23.376;2023-02-08T14:55:00;96499.78;;;-3.08;58.09
72308;BME280;60257;42.638;23.376;2023-02-08T14:57:29;96501.63;;;-3.09;57.30
72308;BME280;60257;42.638;23.376;2023-02-08T14:59:58;96503.78;;;-3.24;58.51
72308;BME280;60257;42.638;23.376;2023-02-08T15:02:25;96512.34;;;-3.40;59.15
72308;BME280;60257;42.638;23.376;2023-02-08T15:04:57;96513.00;;;-3.45;58.24
72308;BME280;60257;42.638;23.376;2023-02-08T15:10:03;96514.09;;;-3.59;58.72
72308;BME280;60257;42.638;23.376;2023-02-08T15:12:32;96509.41;;;-3.70;58.65
72308;BME280;60257;42.638;23.376;2023-02-08T15:15:00;96514.78;;;-3.77;58.81
72308;BME280;60257;42.638;23.376;2023-02-08T15:17:35;96517.50;;;-3.83;59.68
72308;BME280;60257;42.638;23.376;2023-02-08T15:20:04;96519.78;;;-3.94;59.24
72308;BME280;60257;42.638;23.376;2023-02-08T15:22:34;96519.44;;;-4.04;59.73
72308;BME280;60257;42.638;23.376;2023-02-08T15:25:12;96527.06;;;-4.07;59.73
72308;BME280;60257;42.638;23.376;2023-02-08T15:27:46;96516.16;;;-4.12;59.50
72308;BME280;60257;42.638;23.376;2023-02-08T15:30:35;96527.69;;;-4.12;60.20
72308;BME280;60257;42.638;23.376;2023-02-08T15:33:12;96523.31;;;-4.00;60.80
72308;BME280;60257;42.638;23.376;2023-02-08T15:35:39;96519.19;;;-4.02;60.14
72308;BME280;60257;42.638;23.376;2023-02-08T15:38:14;96520.88;;;-4.08;60.52